sensor_id;sensor_type;location;lat;lon;timestamp;temperature;humidity
67942;SHT31;54731;42.600;23.476;2023-04-24T00:01:56;10.73;60.35
67942;SHT31;54731;42.600;23.476;2023-04-24T00:04:21;10.66;60.45
67942;SHT31;54731;42.600;23.476;2023-04-24T00:06:46;10.66;60.26
67942;SHT31;54731;42.600;23.476;2023-04-24T00:09:12;10.71;60.18
67942;SHT31;54731;42.600;23.476;2023-04-24T00:11:37;10.66;60.38
67942;SHT31;54731;42.600;23.476;2023-04-24T00:14:03;10.67;60.73
67942;SHT31;54731;42.600;23.476;2023-04-24T00:16:28;10.60;60.80
67942;SHT31;54731;42.600;23.476;2023-04-24T00:18:54;10.61;60.78
67942;SHT31;54731;42.600;23.476;2023-04-24T00:21:19;10.64;60.63
67942;SHT31;54731;42.600;23.476;2023-04-24T00:23:45;10.61;60.71
67942;SHT31;54731;42.600;23.476;2023-04-24T00:26:10;10.59;60.77
67942;SHT31;54731;42.600;23.476;2023-04-24T00:28:35;10.59;60.53
67942;SHT31;54731;42.600;23.476;2023-04-24T00:31:01;10.60;60.82
67942;SHT31;54731;42.600;23.476;2023-04-24T00:33:26;10.57;61.28
67942;SHT31;54731;42.600;23.476;2023-04-24T00:35:52;10.54;60.91
67942;SHT31;54731;42.600;23.476;2023-04-24T00:38:17;10.46;61.13
67942;SHT31;54731;42.600;23.476;2023-04-24T00:40:43;10.46;61.30
67942;SHT31;54731;42.600;23.476;2023-04-24T00:43:08;10.43;61.68
67942;SHT31;54731;42.600;23.476;2023-04-24T00:45:33;10.34;61.39
67942;SHT31;54731;42.600;23.476;2023-04-24T00:48:00;10.32;61.82
67942;SHT31;54731;42.600;23.476;2023-04-24T00:50:25;10.32;61.86
67942;SHT31;54731;42.600;23.476;2023-04-24T00:52:51;10.24;62.06
67942;SHT31;54731;42.600;23.476;2023-04-24T00:55:16;10.24;62.17
67942;SHT31;54731;42.600;23.476;2023-04-24T00:57:42;10.24;61.92
67942;SHT31;54731;42.600;23.476;2023-04-24T01:00:09;10.20;62.36
67942;SHT31;54731;42.600;23.476;2023-04-24T01:02:34;10.19;62.39
67942;SHT31;54731;42.600;23.476;2023-04-24T01:05:01;10.28;62.08
67942;SHT31;54731;42.600;23.476;2023-04-24T01:07:27;10.30;61.99
67942;SHT31;54731;42.600;23.476;2023-04-24T01:09:52;10.33;61.96
67942;SHT31;54731;42.600;23.476;2023-04-24T01:12:19;10.32;62.29
67942;SHT31;54731;42.600;23.476;2023-04-24T01:14:45;10.34;61.91
67942;SHT31;54731;42.600;23.476;2023-04-24T01:17:10;10.37;61.94
67942;SHT31;54731;42.600;23.476;2023-04-24T01:19:35;10.32;62.19
67942;SHT31;54731;42.600;23.476;2023-04-24T01:22:02;10.28;62.29
67942;SHT31;54731;42.600;23.476;2023-04-24T01:24:28;10.24;62.66
67942;SHT31;54731;42.600;23.476;2023-04-24T01:26:54;10.22;63.29
67942;SHT31;54731;42.600;23.476;2023-04-24T01:29:19;10.20;62.97
67942;SHT31;54731;42.600;23.476;2023-04-24T01:31:45;10.24;63.05
67942;SHT31;54731;42.600;23.476;2023-04-24T01:34:10;10.30;63.04
67942;SHT31;54731;42.600;23.476;2023-04-24T01:36:36;10.26;63.05
67942;SHT31;54731;42.600;23.476;2023-04-24T01:39:02;10.24;63.18
67942;SHT31;54731;42.600;23.476;2023-04-24T01:41:28;10.23;63.48
67942;SHT31;54731;42.600;23.476;2023-04-24T01:43:53;10.23;63.60
67942;SHT31;54731;42.600;23.476;2023-04-24T01:46:19;10.29;63.41
67942;SHT31;54731;42.600;23.476;2023-04-24T01:48:45;10.30;63.73
67942;SHT31;54731;42.600;23.476;2023-04-24T01:51:10;10.36;65.01
67942;SHT31;54731;42.600;23.476;2023-04-24T01:53:36;10.36;66.33
67942;SHT31;54731;42.600;23.476;2023-04-24T01:56:01;10.30;67.54
67942;SHT31;54731;42.600;23.476;2023-04-24T01:58:27;10.29;67.37
67942;SHT31;54731;42.600;23.476;2023-04-24T02:00:53;10.26;67.14
67942;SHT31;54731;42.600;23.476;2023-04-24T02:03:18;10.14;66.66
67942;SHT31;54731;42.600;23.476;2023-04-24T02:05:44;10.05;66.91
67942;SHT31;54731;42.600;23.476;2023-04-24T02:08:09;10.02;67.42
67942;SHT31;54731;42.600;23.476;2023-04-24T02:10:34;9.95;66.99
67942;SHT31;54731;42.600;23.476;2023-04-24T02:13:00;9.93;67.60
67942;SHT31;54731;42.600;23.476;2023-04-24T02:15:25;9.89;67.43
67942;SHT31;54731;42.600;23.476;2023-04-24T02:17:50;9.93;67.34
67942;SHT31;54731;42.600;23.476;2023-04-24T02:20:16;9.92;67.38
67942;SHT31;54731;42.600;23.476;2023-04-24T02:22:41;9.89;67.65
67942;SHT31;54731;42.600;23.476;2023-04-24T02:25:06;9.83;67.77
67942;SHT31;54731;42.600;23.476;2023-04-24T02:27:32;9.77;68.12
67942;SHT31;54731;42.600;23.476;2023-04-24T02:29:57;9.71;67.87
67942;SHT31;54731;42.600;23.476;2023-04-24T02:32:22;9.67;67.48
67942;SHT31;54731;42.600;23.476;2023-04-24T02:34:48;9.63;68.17
67942;SHT31;54731;42.600;23.476;2023-04-24T02:37:13;9.52;68.42
67942;SHT31;54731;42.600;23.476;2023-04-24T02:39:38;9.47;69.00
67942;SHT31;54731;42.600;23.476;2023-04-24T02:42:04;9.45;68.71
67942;SHT31;54731;42.600;23.476;2023-04-24T02:44:29;9.39;68.37
67942;SHT31;54731;42.600;23.476;2023-04-24T02:46:54;9.38;68.67
67942;SHT31;54731;42.600;23.476;2023-04-24T02:49:19;9.37;68.91
67942;SHT31;54731;42.600;23.476;2023-04-24T02:51:45;9.30;69.22
67942;SHT31;54731;42.600;23.476;2023-04-24T02:54:10;9.27;69.65
67942;SHT31;54731;42.600;23.476;2023-04-24T02:56:35;9.21;69.84
67942;SHT31;54731;42.600;23.476;2023-04-24T02:59:01;9.20;69.97
67942;SHT31;54731;42.600;23.476;2023-04-24T03:01:26;9.13;69.77
67942;SHT31;54731;42.600;23.476;2023-04-24T03:03:51;9.08;70.22
67942;SHT31;54731;42.600;23.476;2023-04-24T03:06:17;9.10;70.09
67942;SHT31;54731;42.600;23.476;2023-04-24T03:08:42;8.99;70.25
67942;SHT31;54731;42.600;23.476;2023-04-24T03:11:07;8.91;70.57
67942;SHT31;54731;42.600;23.476;2023-04-24T03:13:33;8.87;70.84
67942;SHT31;54731;42.600;23.476;2023-04-24T03:15:58;8.90;70.36
67942;SHT31;54731;42.600;23.476;2023-04-24T03:18:23;8.87;70.49
67942;SHT31;54731;42.600;23.476;2023-04-24T03:20:49;8.90;70.35
67942;SHT31;54731;42.600;23.476;2023-04-24T03:23:14;8.88;70.47
67942;SHT31;54731;42.600;23.476;2023-04-24T03:25:40;8.87;70.62
67942;SHT31;54731;42.600;23.476;2023-04-24T03:28:05;8.90;70.79
67942;SHT31;54731;42.600;23.476;2023-04-24T03:30:30;8.83;71.17
67942;SHT31;54731;42.600;23.476;2023-04-24T03:32:55;8.83;71.41
67942;SHT31;54731;42.600;23.476;2023-04-24T03:35:21;8.83;71.56
67942;SHT31;54731;42.600;23.476;2023-04-24T03:37:46;8.83;71.56
67942;SHT31;54731;42.600;23.476;2023-04-24T03:40:11;8.83;71.86
67942;SHT31;54731;42.600;23.476;2023-04-24T03:42:37;8.83;71.94
67942;SHT31;54731;42.600;23.476;2023-04-24T03:45:02;8.84;72.28
67942;SHT31;54731;42.600;23.476;2023-04-24T03:47:28;8.83;72.37
67942;SHT31;54731;42.600;23.476;2023-04-24T03:49:53;8.70;72.94
67942;SHT31;54731;42.600;23.476;2023-04-24T03:52:18;8.69;72.94
67942;SHT31;54731;42.600;23.476;2023-04-24T03:54:44;8.69;73.30
67942;SHT31;54731;42.600;23.476;2023-04-24T03:57:09;8.66;73.71
67942;SHT31;54731;42.600;23.476;2023-04-24T03:59:34;8.64;73.66
67942;SHT31;54731;42.600;23.476;2023-04-24T04:02:00;8.69;73.73
67942;SHT31;54731;42.600;23.476;2023-04-24T04:04:25;8.66;73.85
67942;SHT31;54731;42.600;23.476;2023-04-24T04:06:50;8.73;74.10
67942;SHT31;54731;42.600;23.476;2023-04-24T04:09:16;8.72;74.15
67942;SHT31;54731;42.600;23.476;2023-04-24T04:11:41;8.74;74.36
67942;SHT31;54731;42.600;23.476;2023-04-24T04:14:06;8.77;74.54
67942;SHT31;54731;42.600;23.476;2023-04-24T04:16:32;8.87;74.51
67942;SHT31;54731;42.600;23.476;2023-04-24T04:18:57;8.97;74.12
67942;SHT31;54731;42.600;23.476;2023-04-24T04:21:22;8.99;73.92
67942;SHT31;54731;42.600;23.476;2023-04-24T04:23:48;9.03;74.15
67942;SHT31;54731;42.600;23.476;2023-04-24T04:26:13;9.08;74.41
67942;SHT31;54731;42.600;23.476;2023-04-24T04:28:38;9.11;74.09
67942;SHT31;54731;42.600;23.476;2023-04-24T04:31:04;9.17;73.95
67942;SHT31;54731;42.600;23.476;2023-04-24T04:33:29;9.27;73.78
67942;SHT31;54731;42.600;23.476;2023-04-24T04:35:54;9.31;73.14
67942;SHT31;54731;42.600;23.476;2023-04-24T04:38:19;9.38;72.63
67942;SHT31;54731;42.600;23.476;2023-04-24T04:40:46;9.44;72.41
67942;SHT31;54731;42.600;23.476;2023-04-24T04:43:11;9.55;72.12
67942;SHT31;54731;42.600;23.476;2023-04-24T04:45:37;9.61;71.95
67942;SHT31;54731;42.600;23.476;2023-04-24T04:48:03;9.67;72.15
67942;SHT31;54731;42.600;23.476;2023-04-24T04:50:28;9.72;71.76
67942;SHT31;54731;42.600;23.476;2023-04-24T04:52:53;9.79;71.86
67942;SHT31;54731;42.600;23.476;2023-04-24T04:55:18;9.82;72.13
67942;SHT31;54731;42.600;23.476;2023-04-24T04:57:44;9.89;72.06
67942;SHT31;54731;42.600;23.476;2023-04-24T05:00:09;9.98;71.80
67942;SHT31;54731;42.600;23.476;2023-04-24T05:02:35;10.01;71.63
67942;SHT31;54731;42.600;23.476;2023-04-24T05:05:00;10.06;71.15
67942;SHT31;54731;42.600;23.476;2023-04-24T05:07:25;10.10;70.79
67942;SHT31;54731;42.600;23.476;2023-04-24T05:09:51;9.99;71.12
67942;SHT31;54731;42.600;23.476;2023-04-24T05:12:16;9.95;71.83
67942;SHT31;54731;42.600;23.476;2023-04-24T05:14:41;9.89;71.86
67942;SHT31;54731;42.600;23.476;2023-04-24T05:17:06;9.93;71.78
67942;SHT31;54731;42.600;23.476;2023-04-24T05:19:32;10.01;71.97
67942;SHT31;54731;42.600;23.476;2023-04-24T05:21:57;10.01;71.21
67942;SHT31;54731;42.600;23.476;2023-04-24T05:24:22;10.06;71.21
67942;SHT31;54731;42.600;23.476;2023-04-24T05:26:48;10.12;71.05
67942;SHT31;54731;42.600;23.476;2023-04-24T05:29:13;10.23;71.02
67942;SHT31;54731;42.600;23.476;2023-04-24T05:31:38;10.29;70.67
67942;SHT31;54731;42.600;23.476;2023-04-24T05:34:04;10.37;70.06
67942;SHT31;54731;42.600;23.476;2023-04-24T05:36:29;10.37;69.86
67942;SHT31;54731;42.600;23.476;2023-04-24T05:38:54;10.36;69.94
67942;SHT31;54731;42.600;23.476;2023-04-24T05:41:20;10.47;70.10
67942;SHT31;54731;42.600;23.476;2023-04-24T05:43:45;10.47;69.63
67942;SHT31;54731;42.600;23.476;2023-04-24T05:46:11;10.56;69.53
67942;SHT31;54731;42.600;23.476;2023-04-24T05:48:36;10.61;69.54
67942;SHT31;54731;42.600;23.476;2023-04-24T05:51:02;10.67;69.92
67942;SHT31;54731;42.600;23.476;2023-04-24T05:53:27;10.75;69.13
67942;SHT31;54731;42.600;23.476;2023-04-24T05:55:52;10.81;69.18
67942;SHT31;54731;42.600;23.476;2023-04-24T05:58:18;10.93;69.07
67942;SHT31;54731;42.600;23.476;2023-04-24T06:00:43;11.01;68.85
67942;SHT31;54731;42.600;23.476;2023-04-24T06:03:08;11.14;68.86
67942;SHT31;54731;42.600;23.476;2023-04-24T06:05:34;11.22;68.77
67942;SHT31;54731;42.600;23.476;2023-04-24T06:07:59;11.18;68.18
67942;SHT31;54731;42.600;23.476;2023-04-24T06:10:25;11.27;68.11
67942;SHT31;54731;42.600;23.476;2023-04-24T06:12:50;11.25;67.21
67942;SHT31;54731;42.600;23.476;2023-04-24T06:15:15;11.35;66.46
67942;SHT31;54731;42.600;23.476;2023-04-24T06:17:40;11.39;66.04
67942;SHT31;54731;42.600;23.476;2023-04-24T06:20:06;11.42;66.00
67942;SHT31;54731;42.600;23.476;2023-04-24T06:22:31;11.45;66.20
67942;SHT31;54731;42.600;23.476;2023-04-24T06:24:57;11.40;66.94
67942;SHT31;54731;42.600;23.476;2023-04-24T06:27:22;11.42;66.56
67942;SHT31;54731;42.600;23.476;2023-04-24T06:29:47;11.43;66.57
67942;SHT31;54731;42.600;23.476;2023-04-24T06:32:13;11.45;67.56
67942;SHT31;54731;42.600;23.476;2023-04-24T06:34:38;11.58;67.41
67942;SHT31;54731;42.600;23.476;2023-04-24T06:37:03;11.69;66.68
67942;SHT31;54731;42.600;23.476;2023-04-24T06:39:28;11.76;66.19
67942;SHT31;54731;42.600;23.476;2023-04-24T06:41:55;11.76;66.27
67942;SHT31;54731;42.600;23.476;2023-04-24T06:44:21;11.75;66.27
67942;SHT31;54731;42.600;23.476;2023-04-24T06:46:46;11.70;66.46
67942;SHT31;54731;42.600;23.476;2023-04-24T06:49:11;11.75;66.43
67942;SHT31;54731;42.600;23.476;2023-04-24T06:51:37;11.65;66.60
67942;SHT31;54731;42.600;23.476;2023-04-24T06:54:02;11.65;66.89
67942;SHT31;54731;42.600;23.476;2023-04-24T06:56:27;11.59;66.82
67942;SHT31;54731;42.600;23.476;2023-04-24T06:58:53;11.61;67.34
67942;SHT31;54731;42.600;23.476;2023-04-24T07:01:18;11.78;66.55
67942;SHT31;54731;42.600;23.476;2023-04-24T07:03:43;11.92;66.84
67942;SHT31;54731;42.600;23.476;2023-04-24T07:06:09;11.85;67.09
67942;SHT31;54731;42.600;23.476;2023-04-24T07:08:35;11.96;66.52
67942;SHT31;54731;42.600;23.476;2023-04-24T07:11:00;12.12;66.20
67942;SHT31;54731;42.600;23.476;2023-04-24T07:13:25;12.16;65.35
67942;SHT31;54731;42.600;23.476;2023-04-24T07:15:51;12.22;65.64
67942;SHT31;54731;42.600;23.476;2023-04-24T07:18:16;12.22;65.53
67942;SHT31;54731;42.600;23.476;2023-04-24T07:20:42;12.27;65.42
67942;SHT31;54731;42.600;23.476;2023-04-24T07:23:07;12.27;65.73
67942;SHT31;54731;42.600;23.476;2023-04-24T07:25:33;12.36;64.97
67942;SHT31;54731;42.600;23.476;2023-04-24T07:27:58;12.45;65.09
67942;SHT31;54731;42.600;23.476;2023-04-24T07:30:24;12.50;65.13
67942;SHT31;54731;42.600;23.476;2023-04-24T07:32:49;12.60;64.64
67942;SHT31;54731;42.600;23.476;2023-04-24T07:35:14;12.54;64.36
67942;SHT31;54731;42.600;23.476;2023-04-24T07:37:40;12.48;64.39
67942;SHT31;54731;42.600;23.476;2023-04-24T07:40:06;12.64;64.05
67942;SHT31;54731;42.600;23.476;2023-04-24T07:42:31;12.43;64.45
67942;SHT31;54731;42.600;23.476;2023-04-24T07:44:56;12.65;65.25
67942;SHT31;54731;42.600;23.476;2023-04-24T07:47:22;12.75;64.19
67942;SHT31;54731;42.600;23.476;2023-04-24T07:49:47;12.88;64.08
67942;SHT31;54731;42.600;23.476;2023-04-24T07:52:12;13.02;64.72
67942;SHT31;54731;42.600;23.476;2023-04-24T07:54:38;13.08;63.10
67942;SHT31;54731;42.600;23.476;2023-04-24T07:57:03;13.14;62.34
67942;SHT31;54731;42.600;23.476;2023-04-24T07:59:28;13.14;61.51
67942;SHT31;54731;42.600;23.476;2023-04-24T08:01:54;13.29;61.56
67942;SHT31;54731;42.600;23.476;2023-04-24T08:04:19;13.38;61.46
67942;SHT31;54731;42.600;23.476;2023-04-24T08:06:44;13.46;60.30
67942;SHT31;54731;42.600;23.476;2023-04-24T08:09:10;13.55;60.70
67942;SHT31;54731;42.600;23.476;2023-04-24T08:11:35;13.66;60.79
67942;SHT31;54731;42.600;23.476;2023-04-24T08:14:02;13.70;57.88
67942;SHT31;54731;42.600;23.476;2023-04-24T08:16:27;13.81;59.39
67942;SHT31;54731;42.600;23.476;2023-04-24T08:18:53;13.81;60.06
67942;SHT31;54731;42.600;23.476;2023-04-24T08:21:18;13.87;59.60
67942;SHT31;54731;42.600;23.476;2023-04-24T08:23:44;13.97;60.44
67942;SHT31;54731;42.600;23.476;2023-04-24T08:26:10;14.07;59.35
67942;SHT31;54731;42.600;23.476;2023-04-24T08:28:35;14.13;59.37
67942;SHT31;54731;42.600;23.476;2023-04-24T08:31:00;14.21;59.11
67942;SHT31;54731;42.600;23.476;2023-04-24T08:33:26;14.33;60.01
67942;SHT31;54731;42.600;23.476;2023-04-24T08:35:52;14.48;60.34
67942;SHT31;54731;42.600;23.476;2023-04-24T08:38:17;14.58;59.55
67942;SHT31;54731;42.600;23.476;2023-04-24T08:40:43;14.74;59.35
67942;SHT31;54731;42.600;23.476;2023-04-24T08:43:08;14.78;58.40
67942;SHT31;54731;42.600;23.476;2023-04-24T08:45:34;14.86;58.85
67942;SHT31;54731;42.600;23.476;2023-04-24T08:48:00;14.89;58.65
67942;SHT31;54731;42.600;23.476;2023-04-24T08:50:25;15.00;59.23
67942;SHT31;54731;42.600;23.476;2023-04-24T08:52:51;15.15;58.87
67942;SHT31;54731;42.600;23.476;2023-04-24T08:55:17;15.03;58.18
67942;SHT31;54731;42.600;23.476;2023-04-24T08:57:42;15.13;58.51
67942;SHT31;54731;42.600;23.476;2023-04-24T09:00:08;15.20;58.30
67942;SHT31;54731;42.600;23.476;2023-04-24T09:02:34;15.32;57.82
67942;SHT31;54731;42.600;23.476;2023-04-24T09:05:00;15.29;57.28
67942;SHT31;54731;42.600;23.476;2023-04-24T09:07:27;15.15;56.66
67942;SHT31;54731;42.600;23.476;2023-04-24T09:09:53;15.30;56.81
67942;SHT31;54731;42.600;23.476;2023-04-24T09:12:19;15.47;56.44
67942;SHT31;54731;42.600;23.476;2023-04-24T09:14:45;15.61;56.14
67942;SHT31;54731;42.600;23.476;2023-04-24T09:17:11;15.89;56.86
67942;SHT31;54731;42.600;23.476;2023-04-24T09:19:37;15.98;56.15
67942;SHT31;54731;42.600;23.476;2023-04-24T09:22:06;16.07;56.28
67942;SHT31;54731;42.600;23.476;2023-04-24T09:24:33;16.28;58.27
67942;SHT31;54731;42.600;23.476;2023-04-24T09:26:59;16.36;58.42
67942;SHT31;54731;42.600;23.476;2023-04-24T09:29:25;16.38;54.64
67942;SHT31;54731;42.600;23.476;2023-04-24T09:31:50;16.42;54.69
67942;SHT31;54731;42.600;23.476;2023-04-24T09:34:21;16.45;54.96
67942;SHT31;54731;42.600;23.476;2023-04-24T09:36:46;16.71;55.22
67942;SHT31;54731;42.600;23.476;2023-04-24T09:39:13;16.80;54.16
67942;SHT31;54731;42.600;23.476;2023-04-24T09:41:49;16.89;54.64
67942;SHT31;54731;42.600;23.476;2023-04-24T09:44:16;17.00;54.39
67942;SHT31;54731;42.600;23.476;2023-04-24T09:46:44;17.16;52.94
67942;SHT31;54731;42.600;23.476;2023-04-24T09:49:13;17.26;52.80
67942;SHT31;54731;42.600;23.476;2023-04-24T09:51:39;17.43;53.32
67942;SHT31;54731;42.600;23.476;2023-04-24T09:54:13;17.55;52.41
67942;SHT31;54731;42.600;23.476;2023-04-24T09:56:42;17.58;51.62
67942;SHT31;54731;42.600;23.476;2023-04-24T09:59:07;17.73;51.63
67942;SHT31;54731;42.600;23.476;2023-04-24T10:01:33;17.81;51.81
67942;SHT31;54731;42.600;23.476;2023-04-24T10:03:59;18.04;52.74
67942;SHT31;54731;42.600;23.476;2023-04-24T10:06:34;18.26;52.76
67942;SHT31;54731;42.600;23.476;2023-04-24T10:09:00;18.45;50.26
67942;SHT31;54731;42.600;23.476;2023-04-24T10:11:26;18.70;52.73
67942;SHT31;54731;42.600;23.476;2023-04-24T10:13:52;18.87;49.60
67942;SHT31;54731;42.600;23.476;2023-04-24T10:16:19;19.00;51.32
67942;SHT31;54731;42.600;23.476;2023-04-24T10:18:49;19.16;50.03
67942;SHT31;54731;42.600;23.476;2023-04-24T10:21:19;19.16;49.65
67942;SHT31;54731;42.600;23.476;2023-04-24T10:23:45;19.24;50.96
67942;SHT31;54731;42.600;23.476;2023-04-24T10:26:12;19.32;47.88
67942;SHT31;54731;42.600;23.476;2023-04-24T10:28:39;19.04;48.92
67942;SHT31;54731;42.600;23.476;2023-04-24T10:31:04;18.92;48.31
67942;SHT31;54731;42.600;23.476;2023-04-24T10:33:30;19.07;46.32
67942;SHT31;54731;42.600;23.476;2023-04-24T10:35:56;19.10;46.43
67942;SHT31;54731;42.600;23.476;2023-04-24T10:38:24;19.11;48.04
67942;SHT31;54731;42.600;23.476;2023-04-24T10:40:50;19.21;47.97
67942;SHT31;54731;42.600;23.476;2023-04-24T10:43:17;19.53;47.18
67942;SHT31;54731;42.600;23.476;2023-04-24T10:46:03;19.58;47.42
67942;SHT31;54731;42.600;23.476;2023-04-24T10:48:28;20.02;46.88
67942;SHT31;54731;42.600;23.476;2023-04-24T10:50:54;20.15;45.75
67942;SHT31;54731;42.600;23.476;2023-04-24T10:53:22;20.28;44.25
67942;SHT31;54731;42.600;23.476;2023-04-24T10:55:51;20.34;43.85
67942;SHT31;54731;42.600;23.476;2023-04-24T10:58:22;20.40;44.59
67942;SHT31;54731;42.600;23.476;2023-04-24T11:00:59;20.50;42.88
67942;SHT31;54731;42.600;23.476;2023-04-24T11:03:33;20.30;42.95
67942;SHT31;54731;42.600;23.476;2023-04-24T11:06:01;20.02;42.96
67942;SHT31;54731;42.600;23.476;2023-04-24T11:08:37;19.62;43.80
67942;SHT31;54731;42.600;23.476;2023-04-24T11:16:30;19.83;43.34
67942;SHT31;54731;42.600;23.476;2023-04-24T11:19:06;19.89;43.37
67942;SHT31;54731;42.600;23.476;2023-04-24T11:27:21;20.20;42.89
67942;SHT31;54731;42.600;23.476;2023-04-24T11:34:58;20.36;43.26
67942;SHT31;54731;42.600;23.476;2023-04-24T11:37:26;20.40;43.60
67942;SHT31;54731;42.600;23.476;2023-04-24T11:39:57;20.43;43.55
67942;SHT31;54731;42.600;23.476;2023-04-24T11:42:23;20.34;42.20
67942;SHT31;54731;42.600;23.476;2023-04-24T11:44:49;20.05;40.37
67942;SHT31;54731;42.600;23.476;2023-04-24T11:47:15;19.35;39.78
67942;SHT31;54731;42.600;23.476;2023-04-24T11:49:40;19.07;39.85
67942;SHT31;54731;42.600;23.476;2023-04-24T11:52:06;18.64;41.89
67942;SHT31;54731;42.600;23.476;2023-04-24T11:54:31;18.38;44.66
67942;SHT31;54731;42.600;23.476;2023-04-24T11:56:57;18.05;46.73
67942;SHT31;54731;42.600;23.476;2023-04-24T11:59:22;17.92;49.98
67942;SHT31;54731;42.600;23.476;2023-04-24T12:01:48;17.77;49.21
67942;SHT31;54731;42.600;23.476;2023-04-24T12:04:16;17.54;51.62
67942;SHT31;54731;42.600;23.476;2023-04-24T12:09:26;17.12;55.59
67942;SHT31;54731;42.600;23.476;2023-04-24T12:11:55;16.87;56.92
67942;SHT31;54731;42.600;23.476;2023-04-24T12:14:21;16.89;56.51
67942;SHT31;54731;42.600;23.476;2023-04-24T12:16:48;16.89;57.78
67942;SHT31;54731;42.600;23.476;2023-04-24T12:19:20;16.95;57.33
67942;SHT31;54731;42.600;23.476;2023-04-24T12:21:59;17.07;56.85
67942;SHT31;54731;42.600;23.476;2023-04-24T12:24:24;17.15;57.38
67942;SHT31;54731;42.600;23.476;2023-04-24T12:26:49;17.20;51.11
67942;SHT31;54731;42.600;23.476;2023-04-24T12:29:19;17.26;52.59
67942;SHT31;54731;42.600;23.476;2023-04-24T12:31:45;17.33;52.61
67942;SHT31;54731;42.600;23.476;2023-04-24T12:34:24;17.44;48.76
67942;SHT31;54731;42.600;23.476;2023-04-24T12:36:50;17.40;45.65
67942;SHT31;54731;42.600;23.476;2023-04-24T12:39:18;17.41;52.04
67942;SHT31;54731;42.600;23.476;2023-04-24T12:41:56;17.41;52.38
67942;SHT31;54731;42.600;23.476;2023-04-24T12:44:42;17.23;48.82
67942;SHT31;54731;42.600;23.476;2023-04-24T12:47:07;17.16;47.95
67942;SHT31;54731;42.600;23.476;2023-04-24T12:49:33;17.13;49.63
67942;SHT31;54731;42.600;23.476;2023-04-24T12:51:58;16.89;53.07
67942;SHT31;54731;42.600;23.476;2023-04-24T12:54:23;16.76;56.08
67942;SHT31;54731;42.600;23.476;2023-04-24T12:56:49;16.29;60.43
67942;SHT31;54731;42.600;23.476;2023-04-24T12:59:14;15.93;62.69
67942;SHT31;54731;42.600;23.476;2023-04-24T13:01:41;15.94;65.29
67942;SHT31;54731;42.600;23.476;2023-04-24T13:04:06;15.94;65.70
67942;SHT31;54731;42.600;23.476;2023-04-24T13:06:32;16.01;68.36
67942;SHT31;54731;42.600;23.476;2023-04-24T13:08:57;16.08;66.92
67942;SHT31;54731;42.600;23.476;2023-04-24T13:11:22;16.02;67.44
67942;SHT31;54731;42.600;23.476;2023-04-24T13:13:48;15.93;67.65
67942;SHT31;54731;42.600;23.476;2023-04-24T13:16:13;15.89;68.52
67942;SHT31;54731;42.600;23.476;2023-04-24T13:18:38;15.89;69.32
67942;SHT31;54731;42.600;23.476;2023-04-24T13:21:03;15.91;69.86
67942;SHT31;54731;42.600;23.476;2023-04-24T13:23:29;15.98;69.30
67942;SHT31;54731;42.600;23.476;2023-04-24T13:25:54;16.07;65.71
67942;SHT31;54731;42.600;23.476;2023-04-24T13:28:19;16.10;63.46
67942;SHT31;54731;42.600;23.476;2023-04-24T13:30:45;16.10;63.50
67942;SHT31;54731;42.600;23.476;2023-04-24T13:33:10;16.12;62.75
67942;SHT31;54731;42.600;23.476;2023-04-24T13:35:35;16.18;62.39
67942;SHT31;54731;42.600;23.476;2023-04-24T13:38:01;16.24;62.49
67942;SHT31;54731;42.600;23.476;2023-04-24T13:40:26;16.26;62.04
67942;SHT31;54731;42.600;23.476;2023-04-24T13:42:52;16.31;61.50
67942;SHT31;54731;42.600;23.476;2023-04-24T13:45:17;16.34;61.94
67942;SHT31;54731;42.600;23.476;2023-04-24T13:47:43;16.41;64.42
67942;SHT31;54731;42.600;23.476;2023-04-24T13:50:09;16.59;62.11
67942;SHT31;54731;42.600;23.476;2023-04-24T13:52:34;16.82;61.82
67942;SHT31;54731;42.600;23.476;2023-04-24T13:55:02;17.09;60.37
67942;SHT31;54731;42.600;23.476;2023-04-24T13:57:28;17.19;58.53
67942;SHT31;54731;42.600;23.476;2023-04-24T13:59:53;17.33;59.32
67942;SHT31;54731;42.600;23.476;2023-04-24T14:02:18;17.41;57.93
67942;SHT31;54731;42.600;23.476;2023-04-24T14:04:44;17.40;56.29
67942;SHT31;54731;42.600;23.476;2023-04-24T14:07:09;17.34;55.84
67942;SHT31;54731;42.600;23.476;2023-04-24T14:09:34;17.36;55.45
67942;SHT31;54731;42.600;23.476;2023-04-24T14:12:00;17.30;53.35
67942;SHT31;54731;42.600;23.476;2023-04-24T14:14:25;17.30;53.46
67942;SHT31;54731;42.600;23.476;2023-04-24T14:16:50;17.40;53.17
67942;SHT31;54731;42.600;23.476;2023-04-24T14:19:16;17.44;52.96
67942;SHT31;54731;42.600;23.476;2023-04-24T14:21:41;17.44;53.95
67942;SHT31;54731;42.600;23.476;2023-04-24T14:24:07;17.22;53.68
67942;SHT31;54731;42.600;23.476;2023-04-24T14:26:33;17.09;54.57
67942;SHT31;54731;42.600;23.476;2023-04-24T14:28:58;17.20;54.72
67942;SHT31;54731;42.600;23.476;2023-04-24T14:31:23;17.13;56.18
67942;SHT31;54731;42.600;23.476;2023-04-24T14:33:49;17.17;56.16
67942;SHT31;54731;42.600;23.476;2023-04-24T14:36:14;17.03;55.65
67942;SHT31;54731;42.600;23.476;2023-04-24T14:38:39;17.19;55.93
67942;SHT31;54731;42.600;23.476;2023-04-24T14:41:05;17.22;55.19
67942;SHT31;54731;42.600;23.476;2023-04-24T14:43:30;17.12;58.00
67942;SHT31;54731;42.600;23.476;2023-04-24T14:45:55;17.16;57.85
67942;SHT31;54731;42.600;23.476;2023-04-24T14:48:20;17.16;58.51
67942;SHT31;54731;42.600;23.476;2023-04-24T14:50:46;17.31;57.08
67942;SHT31;54731;42.600;23.476;2023-04-24T14:53:11;17.41;55.40
67942;SHT31;54731;42.600;23.476;2023-04-24T14:55:36;17.28;55.10
67942;SHT31;54731;42.600;23.476;2023-04-24T14:58:02;17.17;54.03
67942;SHT31;54731;42.600;23.476;2023-04-24T15:00:27;16.99;55.14
67942;SHT31;54731;42.600;23.476;2023-04-24T15:02:53;16.68;54.90
67942;SHT31;54731;42.600;23.476;2023-04-24T15:05:18;16.49;55.46
67942;SHT31;54731;42.600;23.476;2023-04-24T15:07:43;16.47;55.29
67942;SHT31;54731;42.600;23.476;2023-04-24T15:10:09;16.38;57.41
67942;SHT31;54731;42.600;23.476;2023-04-24T15:12:35;16.14;62.05
67942;SHT31;54731;42.600;23.476;2023-04-24T15:15:00;15.93;63.09
67942;SHT31;54731;42.600;23.476;2023-04-24T15:17:26;15.86;64.02
67942;SHT31;54731;42.600;23.476;2023-04-24T15:19:51;15.98;63.65
67942;SHT31;54731;42.600;23.476;2023-04-24T15:22:16;15.93;63.54
67942;SHT31;54731;42.600;23.476;2023-04-24T15:24:42;15.67;64.56
67942;SHT31;54731;42.600;23.476;2023-04-24T15:27:09;15.47;65.55
67942;SHT31;54731;42.600;23.476;2023-04-24T15:29:34;15.37;65.41
67942;SHT31;54731;42.600;23.476;2023-04-24T15:32:00;15.23;65.84